Lhanbryd, United Kingdom
Current Conditions -  °F | °C
As of 5:50 PM on Thursday 30 Oct 2014 (Local Time) from EGQS Reporting Station
Broken Clouds Broken Clouds  
Wind Chill: 11°   Ceiling: 8000
Heat Index: 11°   Visibility: 6mi
Dew Point: 10°   Wind: 5mph
Humidity: 94%   Direction: 130°SE
Pressure: 29.83"   Gusts: NA
Location:  57.62°N, 3.22°W
Report Text: EGQS 301750Z 13004KT 9999 SCT035 BKN080 11/10 Q1010 BLU
Loading
Personal Weather Stations






























Interactive Weather Map
Tropical Storm Tracking
New forecast layout! Learn more

10-Day Weather Forecast

Advertisements
Track Severe Weather on mobile